createdAt,value
2018-06-18T04:10:03.919Z,856
2018-06-18T04:10:29.438Z,836
2018-06-18T04:10:54.930Z,812
2018-06-18T04:11:20.423Z,804
2018-06-18T04:11:45.912Z,796
2018-06-18T04:13:09.406Z,792
2018-06-18T04:13:34.901Z,804
2018-06-18T04:14:00.415Z,824
2018-06-18T04:14:25.889Z,852
2018-06-18T04:14:51.432Z,872
2018-06-18T04:15:16.974Z,884
2018-06-18T04:15:42.480Z,896
2018-06-18T04:16:07.982Z,916
2018-06-18T04:16:33.471Z,944
2018-06-18T04:16:58.944Z,988
2018-06-18T04:17:24.504Z,1048
2018-06-18T04:17:50.012Z,1108
2018-06-18T04:18:15.485Z,1160
2018-06-18T04:18:40.998Z,1200
2018-06-18T04:19:06.485Z,1236
2018-06-18T04:19:32.065Z,1264
2018-06-18T04:19:57.505Z,1304
2018-06-18T04:20:22.992Z,1344
2018-06-18T04:20:48.479Z,1396
2018-06-18T04:21:13.979Z,1452
2018-06-18T04:21:39.471Z,1516
2018-06-18T04:22:04.952Z,1592
2018-06-18T04:22:30.486Z,1644
2018-06-18T04:22:55.983Z,1648
2018-06-18T04:23:21.470Z,1596
2018-06-18T04:23:46.976Z,1524
2018-06-18T04:24:12.477Z,1440
2018-06-18T04:24:37.983Z,1376
2018-06-18T04:25:03.463Z,1324
2018-06-18T04:25:28.978Z,1280
2018-06-18T04:25:54.491Z,1256
2018-06-18T04:26:20.021Z,1256
2018-06-18T04:26:45.514Z,1284
2018-06-18T04:27:11.021Z,1332
2018-06-18T04:27:36.562Z,1376
2018-06-18T04:28:02.051Z,1420
2018-06-18T04:28:27.569Z,1460
2018-06-18T04:28:53.082Z,1488
2018-06-18T04:29:18.583Z,1508
2018-06-18T04:29:44.053Z,1532
2018-06-18T04:30:09.558Z,1552
2018-06-18T04:30:35.065Z,1552
2018-06-18T04:31:00.588Z,1548
2018-06-18T04:31:26.071Z,1552
2018-06-18T04:31:51.556Z,1564
2018-06-18T04:32:17.070Z,1588
2018-06-18T04:32:42.553Z,1600
2018-06-18T04:33:08.053Z,1604
2018-06-18T04:33:33.558Z,1596
2018-06-18T04:33:59.065Z,1584
2018-06-18T04:34:24.577Z,1588
2018-06-18T04:34:50.058Z,1604
2018-06-18T04:35:15.551Z,1620
2018-06-18T04:35:41.080Z,1624
2018-06-18T04:36:06.591Z,1616
2018-06-18T04:36:32.086Z,1604
2018-06-18T04:36:57.568Z,1572
2018-06-18T04:37:23.100Z,1532
2018-06-18T04:37:48.676Z,1488
2018-06-18T04:38:14.086Z,1420
2018-06-18T04:38:39.577Z,1336
2018-06-18T04:39:05.099Z,1252
2018-06-18T04:39:30.580Z,1184
2018-06-18T04:39:56.088Z,1140
2018-06-18T04:40:21.596Z,1128
2018-06-18T04:40:47.062Z,1128
2018-06-18T04:41:12.588Z,1140
2018-06-18T04:41:38.107Z,1152
2018-06-18T04:42:03.605Z,1168
2018-06-18T04:42:29.101Z,1184
2018-06-18T04:42:54.587Z,1192
2018-06-18T04:43:20.070Z,1196
2018-06-18T04:43:45.586Z,1188
2018-06-18T04:44:11.144Z,1180
2018-06-18T04:45:29.605Z,1224
2018-06-18T04:45:55.128Z,1280
2018-06-18T04:46:20.607Z,1364
2018-06-18T04:46:46.104Z,1468
2018-06-18T04:47:11.615Z,1592
2018-06-18T04:47:37.151Z,1692
2018-06-18T04:48:02.640Z,1720
2018-06-18T04:48:28.143Z,1728
2018-06-18T04:48:53.631Z,1832
2018-06-18T04:49:19.109Z,1964
2018-06-18T04:49:44.624Z,2072
2018-06-18T04:50:10.105Z,2160
2018-06-18T04:50:35.597Z,2168
2018-06-18T04:51:01.113Z,2104
2018-06-18T04:51:26.612Z,2100
2018-06-18T04:51:52.102Z,2156
2018-06-18T04:52:17.604Z,2232
2018-06-18T04:52:43.080Z,2304
2018-06-18T04:53:08.581Z,2352
2018-06-18T04:53:34.059Z,2360
2018-06-18T04:53:59.553Z,2364
2018-06-18T04:54:25.053Z,2348
2018-06-18T04:54:50.559Z,2320
2018-06-18T04:55:16.067Z,2304
2018-06-18T04:55:41.592Z,2328
2018-06-18T04:56:07.094Z,2364
2018-06-18T04:56:32.649Z,2380
2018-06-18T04:56:58.155Z,2372
2018-06-18T04:57:23.655Z,2368
2018-06-18T04:57:49.141Z,2420
2018-06-18T04:58:14.658Z,2468
2018-06-18T04:58:40.181Z,2476
2018-06-18T04:59:05.729Z,2516
2018-06-18T04:59:31.202Z,2628
2018-06-18T04:59:56.716Z,2628
2018-06-18T05:00:22.245Z,2584
2018-06-18T05:00:47.762Z,2604
2018-06-18T05:01:13.232Z,2672
2018-06-18T05:01:38.762Z,2764
2018-06-18T05:02:04.251Z,2840
2018-06-18T05:02:29.765Z,2852
2018-06-18T05:02:55.272Z,2820
2018-06-18T05:03:20.789Z,2784
2018-06-18T05:03:46.296Z,2780
2018-06-18T05:04:11.805Z,2728
2018-06-18T05:04:37.288Z,2696
2018-06-18T05:05:02.775Z,2520
2018-06-18T05:05:28.293Z,2432
2018-06-18T05:05:53.823Z,2408
2018-06-18T05:06:19.302Z,2324
2018-06-18T05:06:44.839Z,2240
2018-06-18T05:07:10.350Z,2196
2018-06-18T05:07:35.970Z,2160
2018-06-18T05:08:01.310Z,2076
2018-06-18T05:08:26.806Z,1960
2018-06-18T05:08:52.307Z,1952
2018-06-18T05:09:17.810Z,2024
2018-06-18T05:09:43.300Z,2164
2018-06-18T05:10:08.827Z,2312
2018-06-18T05:10:34.298Z,2332
2018-06-18T05:10:59.806Z,2324
2018-06-18T05:11:25.309Z,2380
2018-06-18T05:11:50.807Z,2404
2018-06-18T05:12:16.341Z,2408
2018-06-18T05:12:41.862Z,2400
2018-06-18T05:13:07.341Z,2372
2018-06-18T05:13:32.808Z,2352
2018-06-18T05:13:58.331Z,2380
2018-06-18T05:14:23.839Z,2444
2018-06-18T05:14:49.284Z,2476
2018-06-18T05:15:14.785Z,2492
2018-06-18T05:15:40.280Z,2480
2018-06-18T05:16:05.839Z,2444
2018-06-18T05:16:31.300Z,2420
2018-06-18T05:17:45.136Z,2420
2018-06-18T05:18:10.634Z,2428
2018-06-18T05:18:36.132Z,2436
2018-06-18T05:19:01.622Z,2424
2018-06-18T05:19:27.113Z,2424
2018-06-18T05:19:52.604Z,2420
2018-06-18T05:20:18.147Z,2428
2018-06-18T05:20:43.664Z,2412
2018-06-18T05:21:09.104Z,2380
2018-06-18T05:21:34.597Z,2348
2018-06-18T05:22:00.113Z,2344
2018-06-18T05:22:25.595Z,2352
2018-06-18T05:22:51.091Z,2364
2018-06-18T05:23:16.582Z,2380
2018-06-18T05:23:42.079Z,2408
2018-06-18T05:24:07.590Z,2448
2018-06-18T05:24:33.088Z,2488
2018-06-18T05:24:58.583Z,2504
2018-06-18T05:25:24.091Z,2500
2018-06-18T05:25:49.608Z,2476
2018-06-18T05:26:15.145Z,2468
2018-06-18T05:26:40.630Z,2508
2018-06-18T05:27:06.136Z,2548
2018-06-18T05:27:31.610Z,2588
2018-06-18T05:28:45.399Z,2580
2018-06-18T05:29:10.892Z,2572
2018-06-18T05:29:36.395Z,2568
2018-06-18T05:30:01.885Z,2552
2018-06-18T05:30:27.454Z,2532
2018-06-18T05:30:52.948Z,2540
2018-06-18T05:31:18.439Z,2572
2018-06-18T05:31:43.942Z,2612
2018-06-18T05:32:09.462Z,2640
2018-06-18T05:32:34.961Z,2652
2018-06-18T05:33:00.467Z,2644
2018-06-18T05:33:25.949Z,2616
2018-06-18T05:33:51.487Z,2572
2018-06-18T05:34:16.978Z,2536
2018-06-18T05:35:25.819Z,2560
2018-06-18T05:35:51.198Z,2564
2018-06-18T05:36:16.689Z,2520
2018-06-18T05:36:42.187Z,2440
2018-06-18T05:37:07.684Z,2360
2018-06-18T05:37:33.148Z,2292
2018-06-18T05:37:58.663Z,2232
2018-06-18T05:38:24.137Z,2204
2018-06-18T05:38:49.648Z,2180
2018-06-18T05:39:15.110Z,2188
2018-06-18T05:39:40.651Z,2236
2018-06-18T05:40:06.157Z,2324
2018-06-18T05:40:31.628Z,2412
2018-06-18T05:40:57.125Z,2496
2018-06-18T05:41:22.615Z,2576
2018-06-18T05:41:48.108Z,2640
2018-06-18T05:42:13.617Z,2700
2018-06-18T05:42:39.115Z,2732
2018-06-18T05:43:04.623Z,2728
2018-06-18T05:43:30.127Z,2716
2018-06-18T05:43:55.601Z,2720
2018-06-18T05:44:21.066Z,2756
2018-06-18T05:44:46.584Z,2808
2018-06-18T05:45:12.044Z,2832
2018-06-18T05:45:37.580Z,2864
2018-06-18T05:46:03.057Z,2892
2018-06-18T05:46:28.543Z,2936
2018-06-18T05:46:54.062Z,2980
2018-06-18T05:47:19.592Z,3020
2018-06-18T05:47:45.085Z,3052
2018-06-18T05:48:10.604Z,3068
2018-06-18T05:48:36.065Z,3052
2018-06-18T05:49:01.556Z,3016
2018-06-18T05:49:27.042Z,3012
2018-06-18T05:49:52.518Z,3040
2018-06-18T05:50:18.003Z,3064
2018-06-18T05:50:43.517Z,3088
2018-06-18T05:51:09.006Z,3096
2018-06-18T05:51:34.493Z,3108
2018-06-18T05:51:59.989Z,3096
2018-06-18T05:52:25.489Z,3080
2018-06-18T05:52:51.011Z,3052
2018-06-18T05:53:16.526Z,3056
2018-06-18T05:54:40.547Z,3152
2018-06-18T05:55:06.048Z,3136
2018-06-18T05:55:31.561Z,3156
2018-06-18T05:55:57.103Z,3152
2018-06-18T05:56:22.581Z,3104
2018-06-18T05:56:48.064Z,3128
2018-06-18T05:57:13.559Z,3212
2018-06-18T05:57:39.125Z,3268
2018-06-18T05:58:04.608Z,3320
2018-06-18T05:58:30.146Z,3372
2018-06-18T05:58:55.642Z,3408
2018-06-18T05:59:21.136Z,3416
2018-06-18T05:59:46.623Z,3460
2018-06-18T06:00:12.121Z,3484
2018-06-18T06:00:37.643Z,3540
2018-06-18T06:01:03.133Z,3548
2018-06-18T06:01:28.625Z,3556
2018-06-18T06:01:54.124Z,3544
2018-06-18T06:02:19.660Z,3404
2018-06-18T06:02:45.187Z,3216
2018-06-18T06:03:10.694Z,3104
2018-06-18T06:03:36.208Z,3060
2018-06-18T06:04:01.708Z,3100
2018-06-18T06:04:27.214Z,3096
2018-06-18T06:04:52.721Z,3104
2018-06-18T06:05:18.214Z,3176
2018-06-18T06:05:43.712Z,3140
2018-06-18T06:06:09.270Z,3064
2018-06-18T06:06:34.703Z,3048
2018-06-18T06:07:00.193Z,2996
2018-06-18T06:07:25.687Z,2996
2018-06-18T06:07:51.199Z,3032
2018-06-18T06:08:16.744Z,3092
2018-06-18T06:08:42.230Z,3200
2018-06-18T06:09:07.751Z,3312
2018-06-18T06:09:33.206Z,3400
2018-06-18T06:09:58.695Z,3488
2018-06-18T06:10:24.186Z,3484
2018-06-18T06:10:49.731Z,3604
2018-06-18T06:11:15.246Z,3708
2018-06-18T06:11:40.762Z,3768
2018-06-18T06:12:06.264Z,3812
2018-06-18T06:12:31.746Z,3764
2018-06-18T06:12:57.297Z,3700
2018-06-18T06:13:22.736Z,3724
2018-06-18T06:13:48.219Z,3784
2018-06-18T06:14:13.731Z,3824
2018-06-18T06:14:39.257Z,3780
2018-06-18T06:15:04.767Z,3736
2018-06-18T06:15:30.274Z,3708
2018-06-18T06:15:55.746Z,3840
2018-06-18T06:16:21.235Z,3888
2018-06-18T06:16:46.777Z,4056
2018-06-18T06:17:12.249Z,4060
2018-06-18T06:17:37.715Z,3976
2018-06-18T06:18:03.233Z,3832
2018-06-18T06:18:28.728Z,3792
2018-06-18T06:18:54.228Z,3644
2018-06-18T06:19:19.727Z,3592
2018-06-18T06:19:45.223Z,3424
2018-06-18T06:20:10.733Z,3340
2018-06-18T06:20:36.220Z,3100
2018-06-18T06:21:01.706Z,2992
2018-06-18T06:21:27.201Z,2852
2018-06-18T06:21:52.713Z,2764
2018-06-18T06:22:18.191Z,2764
2018-06-18T06:22:43.686Z,2668
2018-06-18T06:23:09.199Z,2604
2018-06-18T06:23:34.708Z,2676
2018-06-18T06:24:00.177Z,2880
2018-06-18T06:25:03.808Z,3308
2018-06-18T06:25:29.317Z,3248
2018-06-18T06:25:54.813Z,3164
2018-06-18T06:26:20.340Z,3320
2018-06-18T06:26:45.826Z,3344
2018-06-18T06:27:11.327Z,3376
2018-06-18T06:27:36.847Z,3364
2018-06-18T06:28:02.318Z,3404
2018-06-18T06:28:27.797Z,3508
2018-06-18T06:28:53.325Z,3364
2018-06-18T06:29:18.827Z,3220
2018-06-18T06:29:44.337Z,3152
2018-06-18T06:30:09.812Z,3068
2018-06-18T06:30:35.327Z,3040
2018-06-18T06:31:00.835Z,3188
2018-06-18T06:31:26.370Z,3336
2018-06-18T06:31:51.878Z,3472
2018-06-18T06:32:17.384Z,3636
2018-06-18T06:32:42.909Z,3736
2018-06-18T06:33:08.409Z,3936
2018-06-18T06:33:33.926Z,4184
2018-06-18T06:33:59.431Z,4348
2018-06-18T06:34:24.899Z,4328
2018-06-18T06:34:50.390Z,4536
2018-06-18T06:35:15.906Z,5012
2018-06-18T06:35:41.346Z,5292
2018-06-18T06:36:06.826Z,5280
2018-06-18T06:36:32.316Z,4948
2018-06-18T06:36:57.843Z,4704
2018-06-18T06:37:23.341Z,4692
2018-06-18T06:37:48.801Z,4992
2018-06-18T06:38:14.307Z,5304
2018-06-18T06:38:39.794Z,5436
2018-06-18T06:39:05.425Z,5408
2018-06-18T06:39:30.932Z,5312
2018-06-18T06:39:56.428Z,5216
2018-06-18T06:40:21.915Z,5204
2018-06-18T06:40:47.426Z,5276
2018-06-18T06:41:12.952Z,5252
2018-06-18T06:41:38.471Z,5248
2018-06-18T06:42:03.985Z,5316
2018-06-18T06:42:29.480Z,5284
2018-06-18T06:42:55.009Z,5184
2018-06-18T06:43:20.509Z,5316
2018-06-18T06:44:29.212Z,5568
2018-06-18T06:44:54.725Z,5408
2018-06-18T06:45:20.211Z,5260
2018-06-18T06:45:45.728Z,5172
2018-06-18T06:46:11.244Z,5048
2018-06-18T06:46:36.750Z,5024
2018-06-18T06:47:02.220Z,5016
2018-06-18T06:47:27.718Z,4968
2018-06-18T06:47:53.204Z,5004
2018-06-18T06:48:18.709Z,5080
2018-06-18T06:48:44.221Z,5252
2018-06-18T06:49:09.682Z,5408
2018-06-18T06:49:35.187Z,5608
2018-06-18T06:50:00.718Z,5716
2018-06-18T06:50:26.172Z,5788
2018-06-18T06:50:51.664Z,6088
2018-06-18T06:51:17.178Z,6572
2018-06-18T06:51:42.646Z,6732
2018-06-18T06:52:08.151Z,6472
2018-06-18T06:52:33.660Z,6104
2018-06-18T06:53:52.607Z,5972
2018-06-18T06:54:18.108Z,5900
2018-06-18T06:54:43.612Z,5708
2018-06-18T06:55:09.120Z,5680
2018-06-18T06:55:34.622Z,5668
2018-06-18T06:56:00.157Z,5564
2018-06-18T06:56:25.599Z,5544
2018-06-18T06:56:51.111Z,5292
2018-06-18T06:57:16.600Z,5160
2018-06-18T06:57:42.117Z,5104
2018-06-18T06:58:07.602Z,5304
2018-06-18T06:58:33.135Z,5580
2018-06-18T06:58:58.641Z,5652
2018-06-18T06:59:24.147Z,5668
2018-06-18T06:59:49.661Z,5612
2018-06-18T07:00:15.159Z,5628
2018-06-18T07:00:40.675Z,5700
2018-06-18T07:01:06.212Z,5724
2018-06-18T07:01:31.706Z,5616
2018-06-18T07:01:57.189Z,5368
2018-06-18T07:02:22.693Z,5056
2018-06-18T07:02:48.187Z,4924
2018-06-18T07:03:13.693Z,5072
2018-06-18T07:03:39.170Z,5192
2018-06-18T07:04:04.648Z,5096
2018-06-18T07:04:30.191Z,5004
2018-06-18T07:04:55.711Z,5004
2018-06-18T07:05:21.209Z,5112
2018-06-18T07:05:46.707Z,5276
2018-06-18T07:06:12.225Z,5348
2018-06-18T07:06:37.726Z,5384
2018-06-18T07:07:03.254Z,5500
2018-06-18T07:07:28.727Z,5580
2018-06-18T07:07:54.231Z,5636
2018-06-18T07:08:19.704Z,5756
2018-06-18T07:08:45.199Z,5740
2018-06-18T07:09:10.674Z,5544
2018-06-18T07:09:36.160Z,5392
2018-06-18T07:10:01.656Z,5472
2018-06-18T07:10:27.146Z,5568
2018-06-18T07:10:52.648Z,5628
2018-06-18T07:11:18.145Z,5532
2018-06-18T07:11:43.650Z,5260
2018-06-18T07:12:09.144Z,5068
2018-06-18T07:12:34.646Z,4932
2018-06-18T07:13:00.134Z,4848
2018-06-18T07:13:25.666Z,4680
2018-06-18T07:13:51.139Z,4664
2018-06-18T07:14:16.614Z,4696
2018-06-18T07:14:42.099Z,4724
2018-06-18T07:15:07.587Z,4720
2018-06-18T07:15:33.130Z,4664
2018-06-18T07:15:58.637Z,4560
2018-06-18T07:16:24.116Z,4424
2018-06-18T07:16:49.620Z,4492
2018-06-18T07:17:15.096Z,4732
2018-06-18T07:17:40.614Z,4700
2018-06-18T07:18:06.077Z,4580
2018-06-18T07:18:31.594Z,4664
2018-06-18T07:19:45.437Z,4944
2018-06-18T07:20:10.958Z,5172
2018-06-18T07:20:36.473Z,5332
2018-06-18T07:21:01.987Z,5568
2018-06-18T07:21:27.470Z,5876
2018-06-18T07:21:52.972Z,6000
2018-06-18T07:22:18.486Z,6088
2018-06-18T07:22:44.023Z,6196
2018-06-18T07:23:09.547Z,6380
2018-06-18T07:23:35.052Z,6612
2018-06-18T07:24:00.508Z,7016
2018-06-18T07:24:26.016Z,7416
2018-06-18T07:24:51.499Z,7748
2018-06-18T07:25:17.006Z,8080
2018-06-18T07:25:42.512Z,8092
2018-06-18T07:26:08.050Z,8084
2018-06-18T07:26:33.522Z,8048
2018-06-18T07:26:59.031Z,8132
2018-06-18T07:27:24.504Z,8540
2018-06-18T07:27:49.994Z,8960
2018-06-18T07:28:15.469Z,9332
2018-06-18T07:28:40.949Z,9712
2018-06-18T07:29:06.457Z,9976
2018-06-18T07:29:31.968Z,10048
2018-06-18T07:29:57.427Z,10156
2018-06-18T07:30:22.992Z,10348
2018-06-18T07:30:48.496Z,10604
2018-06-18T07:31:13.940Z,10696
2018-06-18T07:32:22.666Z,10188
2018-06-18T07:32:48.172Z,10208
2018-06-18T07:33:13.656Z,10296
2018-06-18T07:33:39.153Z,10428
2018-06-18T07:34:04.674Z,10380
2018-06-18T07:34:30.184Z,10516
2018-06-18T07:34:55.667Z,10576
2018-06-18T07:35:21.201Z,10752
2018-06-18T07:35:46.725Z,10916
2018-06-18T07:36:12.235Z,10956
2018-06-18T07:36:37.723Z,10924
2018-06-18T07:37:03.220Z,10724
2018-06-18T07:37:28.724Z,10532
2018-06-18T07:37:54.214Z,10728
2018-06-18T07:38:19.703Z,10760
2018-06-18T07:38:45.218Z,10616
2018-06-18T07:39:10.717Z,10428
2018-06-18T07:39:36.204Z,10156
2018-06-18T07:40:01.723Z,9932
2018-06-18T07:40:27.221Z,9736
2018-06-18T07:40:52.717Z,9420
2018-06-18T07:41:18.230Z,8984
2018-06-18T07:41:43.741Z,8536
2018-06-18T07:42:09.235Z,8164
2018-06-18T07:42:34.726Z,7880
2018-06-18T07:43:00.193Z,7676
2018-06-18T07:43:25.744Z,7540
2018-06-18T07:43:51.236Z,7424
2018-06-18T07:44:16.730Z,7268
2018-06-18T07:44:42.222Z,7108
2018-06-18T07:45:07.723Z,6992
2018-06-18T07:45:33.265Z,6924
2018-06-18T07:45:58.718Z,6864
2018-06-18T07:46:24.204Z,6796
2018-06-18T07:46:49.695Z,6728
2018-06-18T07:47:15.236Z,6496
2018-06-18T07:47:40.732Z,6036
2018-06-18T07:48:06.212Z,5768
2018-06-18T07:48:31.775Z,5640
2018-06-18T07:48:57.261Z,5208
2018-06-18T07:49:22.781Z,5000
2018-06-18T07:49:48.278Z,4920
2018-06-18T07:50:13.774Z,5128
2018-06-18T07:50:39.268Z,5660
2018-06-18T07:51:04.766Z,5984
2018-06-18T07:51:30.382Z,6316
2018-06-18T07:51:55.814Z,6456
2018-06-18T07:52:21.304Z,6480
2018-06-18T07:52:46.814Z,6512
2018-06-18T07:53:12.288Z,6500
2018-06-18T07:53:37.821Z,6516
2018-06-18T07:54:03.359Z,6360
2018-06-18T07:54:28.908Z,6200
2018-06-18T07:54:54.400Z,6416
2018-06-18T07:55:19.909Z,6508
2018-06-18T07:55:45.383Z,6632
2018-06-18T07:56:10.896Z,6732
2018-06-18T07:56:36.409Z,6936
2018-06-18T07:57:01.898Z,7128
2018-06-18T07:57:27.436Z,7252
2018-06-18T07:57:52.883Z,7440
2018-06-18T07:58:18.404Z,7392
2018-06-18T07:58:43.880Z,7044
2018-06-18T07:59:09.370Z,6904
2018-06-18T07:59:34.866Z,6964
2018-06-18T08:00:00.371Z,7128
2018-06-18T08:00:25.934Z,7436
2018-06-18T08:00:51.416Z,7628
2018-06-18T08:01:16.924Z,7760
2018-06-18T08:01:42.389Z,7824
2018-06-18T08:02:07.907Z,7904
2018-06-18T08:02:33.418Z,7960
2018-06-18T08:02:58.903Z,7968
2018-06-18T08:03:24.440Z,7876
2018-06-18T08:03:49.942Z,7708
2018-06-18T08:04:15.430Z,7492
2018-06-18T08:04:40.940Z,7336
2018-06-18T08:05:06.468Z,7184
2018-06-18T08:05:31.999Z,7120
2018-06-18T08:05:57.508Z,7196
2018-06-18T08:06:23.009Z,7328
2018-06-18T08:06:48.511Z,7492
2018-06-18T08:07:13.965Z,7588
2018-06-18T08:07:39.454Z,7608
2018-06-18T08:08:04.953Z,7568
2018-06-18T08:08:30.467Z,7456
2018-06-18T08:08:55.975Z,7288
2018-06-18T08:09:21.504Z,7168
2018-06-18T08:09:47.066Z,7112
2018-06-18T08:10:12.507Z,7148
2018-06-18T08:11:16.560Z,7240
2018-06-18T08:11:42.102Z,7228
2018-06-18T08:12:07.574Z,7220
2018-06-18T08:12:33.058Z,7236
2018-06-18T08:12:58.571Z,7248
2018-06-18T08:13:24.076Z,7300
2018-06-18T08:13:49.577Z,7424
2018-06-18T08:14:15.066Z,7540
2018-06-18T08:14:40.570Z,7656
2018-06-18T08:15:06.086Z,7776
2018-06-18T08:15:31.569Z,7828
2018-06-18T08:15:57.054Z,7928
2018-06-18T08:16:22.537Z,8084
2018-06-18T08:16:48.022Z,8208
2018-06-18T08:17:13.537Z,8344
2018-06-18T08:17:39.045Z,8456
2018-06-18T08:18:04.562Z,8552
2018-06-18T08:18:30.067Z,8576
2018-06-18T08:18:55.570Z,8608
2018-06-18T08:19:21.055Z,8644
2018-06-18T08:19:46.539Z,8692
2018-06-18T08:20:12.038Z,8752
2018-06-18T08:20:37.519Z,8804
2018-06-18T08:21:03.021Z,8828
2018-06-18T08:21:28.517Z,8832
2018-06-18T08:21:54.025Z,8840
2018-06-18T08:22:19.524Z,8912
2018-06-18T08:22:45.063Z,9040
2018-06-18T08:23:10.550Z,9156
2018-06-18T08:23:36.035Z,9224
2018-06-18T08:24:01.515Z,9216
2018-06-18T08:24:27.039Z,9164
2018-06-18T08:24:52.604Z,9100
2018-06-18T08:25:18.086Z,9064
2018-06-18T08:25:43.573Z,8984
2018-06-18T08:26:09.071Z,8872
2018-06-18T08:26:34.554Z,8832
2018-06-18T08:27:00.117Z,8868
2018-06-18T08:27:25.608Z,8828
2018-06-18T08:27:51.100Z,8760
2018-06-18T08:28:16.573Z,8720
2018-06-18T08:28:42.056Z,8708
2018-06-18T08:29:07.583Z,8744
2018-06-18T08:29:33.065Z,8804
2018-06-18T08:29:58.592Z,8912
2018-06-18T08:30:24.074Z,9052
2018-06-18T08:30:49.578Z,9192
2018-06-18T08:31:15.054Z,9332
2018-06-18T08:31:40.561Z,9476
2018-06-18T08:32:06.066Z,9616
2018-06-18T08:32:31.562Z,9760
2018-06-18T08:32:57.031Z,9912
2018-06-18T08:33:22.566Z,10080
2018-06-18T08:33:48.016Z,10236
2018-06-18T08:34:13.499Z,10392
2018-06-18T08:34:39.006Z,10584
2018-06-18T08:35:04.476Z,10840
2018-06-18T08:35:29.952Z,11108
2018-06-18T08:35:55.471Z,11344
2018-06-18T08:36:20.964Z,11556
2018-06-18T08:36:46.465Z,11712
2018-06-18T08:37:12.020Z,11860
2018-06-18T08:37:37.436Z,12056
2018-06-18T08:38:02.929Z,12256
2018-06-18T08:38:28.447Z,12484
2018-06-18T08:38:53.922Z,12620
2018-06-18T08:39:19.420Z,12676
2018-06-18T08:39:44.923Z,12736
2018-06-18T08:40:10.455Z,12900
2018-06-18T08:40:35.952Z,13104
2018-06-18T08:41:01.439Z,13184
2018-06-18T08:41:26.909Z,13220
2018-06-18T08:41:52.402Z,13028
2018-06-18T08:42:17.923Z,13232
2018-06-18T08:42:43.457Z,13644
2018-06-18T08:43:08.959Z,13976
2018-06-18T08:43:34.455Z,13652
2018-06-18T08:43:59.945Z,13680
2018-06-18T08:44:25.443Z,13708
2018-06-18T08:44:50.934Z,13488
2018-06-18T08:45:16.415Z,13416
2018-06-18T08:45:41.911Z,13492
2018-06-18T08:46:07.445Z,13588
2018-06-18T08:46:32.927Z,14196
2018-06-18T08:46:58.434Z,14088
2018-06-18T08:47:23.945Z,13528
2018-06-18T08:47:49.425Z,12096
2018-06-18T08:48:14.994Z,11060
2018-06-18T08:48:40.477Z,11272
2018-06-18T08:49:05.965Z,11752
2018-06-18T08:49:31.472Z,10668
2018-06-18T08:49:56.979Z,10316
2018-06-18T08:50:22.469Z,10404
2018-06-18T08:50:47.965Z,10208
2018-06-18T08:51:13.475Z,10536
2018-06-18T08:51:38.974Z,11516
2018-06-18T08:52:04.484Z,12732
2018-06-18T08:52:29.981Z,14400
2018-06-18T08:52:55.479Z,14528
2018-06-18T08:53:20.974Z,12880
2018-06-18T08:53:46.495Z,12328
2018-06-18T08:54:11.985Z,11564
2018-06-18T08:54:37.476Z,11280
2018-06-18T08:55:02.962Z,11792
2018-06-18T08:55:28.468Z,12504
2018-06-18T08:55:53.968Z,12836
2018-06-18T08:56:19.489Z,12576
2018-06-18T08:56:44.972Z,11940
2018-06-18T08:57:10.465Z,11416
2018-06-18T08:57:35.955Z,11060
2018-06-18T08:58:01.522Z,11284
2018-06-18T08:58:26.955Z,11444
2018-06-18T08:58:52.473Z,11656
2018-06-18T08:59:17.956Z,11712
2018-06-18T08:59:43.455Z,12036
2018-06-18T09:00:08.931Z,12548
2018-06-18T09:00:34.460Z,12896
2018-06-18T09:00:59.980Z,13520
2018-06-18T09:01:25.507Z,13752
2018-06-18T09:01:50.975Z,12728
2018-06-18T09:02:16.465Z,12008
2018-06-18T09:03:40.514Z,12700
2018-06-18T09:04:05.995Z,11584
2018-06-18T09:04:31.515Z,10604
2018-06-18T09:04:57.090Z,11220
2018-06-18T09:05:22.637Z,11556
2018-06-18T09:05:48.119Z,11728
2018-06-18T09:06:13.625Z,11996
2018-06-18T09:06:39.124Z,11900
2018-06-18T09:07:04.615Z,12700
2018-06-18T09:07:30.107Z,12544
2018-06-18T09:07:55.614Z,12928
2018-06-18T09:08:21.153Z,11968
2018-06-18T09:08:46.655Z,10912
2018-06-18T09:09:12.153Z,9596
2018-06-18T09:09:37.781Z,10248
2018-06-18T09:10:03.216Z,9900
2018-06-18T09:10:28.761Z,10788
2018-06-18T09:10:54.275Z,12372
2018-06-18T09:11:19.797Z,14148
2018-06-18T09:11:45.306Z,13940
2018-06-18T09:12:10.810Z,13872
2018-06-18T09:12:36.424Z,13628
2018-06-18T09:13:02.149Z,13868
2018-06-18T09:13:27.583Z,15464
2018-06-18T09:13:53.063Z,14896
2018-06-18T09:14:18.618Z,15596
2018-06-18T09:14:44.123Z,15368
2018-06-18T09:15:09.598Z,15208
2018-06-18T09:15:35.072Z,15716
2018-06-18T09:16:00.584Z,14852
2018-06-18T09:16:26.090Z,13248
2018-06-18T09:16:51.571Z,13276
2018-06-18T09:17:17.108Z,14876
2018-06-18T09:17:42.596Z,14584
2018-06-18T09:18:08.100Z,14012
2018-06-18T09:18:33.619Z,13108
2018-06-18T09:18:59.100Z,11908
2018-06-18T09:19:24.581Z,10532
2018-06-18T09:19:50.111Z,9496
2018-06-18T09:20:15.600Z,8780
2018-06-18T09:20:41.066Z,9516
2018-06-18T09:21:06.554Z,9856
2018-06-18T09:21:32.104Z,9932
2018-06-18T09:21:57.579Z,9556
2018-06-18T09:22:23.064Z,8884
2018-06-18T09:22:48.569Z,8388
2018-06-18T09:23:14.111Z,8260
2018-06-18T09:23:39.664Z,8324
2018-06-18T09:24:05.175Z,8492
2018-06-18T09:24:30.677Z,9040
2018-06-18T09:24:56.195Z,9036
2018-06-18T09:25:21.712Z,7968
2018-06-18T09:25:47.252Z,7792
2018-06-18T09:26:12.737Z,8276
2018-06-18T09:26:38.273Z,7852
2018-06-18T09:27:03.696Z,6940
2018-06-18T09:27:29.175Z,6352
2018-06-18T09:27:54.629Z,6620
2018-06-18T09:28:20.123Z,6924
2018-06-18T09:28:45.593Z,6324
2018-06-18T09:29:11.089Z,5812
2018-06-18T09:29:36.616Z,5504
2018-06-18T09:30:02.120Z,5448
2018-06-18T09:30:27.670Z,5436
2018-06-18T09:30:53.155Z,5076
2018-06-18T09:31:18.650Z,4452
2018-06-18T09:31:44.146Z,4068
2018-06-18T09:32:09.790Z,3904
2018-06-18T09:32:35.268Z,3760
2018-06-18T09:33:00.648Z,3800
2018-06-18T09:33:26.147Z,3948
2018-06-18T09:33:51.689Z,3960
2018-06-18T09:34:17.182Z,3940
2018-06-18T09:34:42.689Z,3904
2018-06-18T09:35:08.174Z,3876
2018-06-18T09:35:33.711Z,3840
2018-06-18T09:35:59.240Z,4164
2018-06-18T09:36:24.729Z,4464
2018-06-18T09:36:50.221Z,4596
2018-06-18T09:37:15.685Z,4636
2018-06-18T09:37:41.325Z,4616
2018-06-18T09:38:06.782Z,4884
2018-06-18T09:38:32.445Z,5404
2018-06-18T09:38:57.931Z,6256
2018-06-18T09:39:23.439Z,7356
2018-06-18T09:39:48.922Z,8500
2018-06-18T09:40:14.444Z,9564
2018-06-18T09:40:39.936Z,10856
2018-06-18T09:41:05.455Z,12296
2018-06-18T09:41:30.923Z,13672
2018-06-18T09:41:56.415Z,14540
2018-06-18T09:42:21.933Z,14984
2018-06-18T09:42:47.407Z,15264
2018-06-18T09:43:12.879Z,15136
2018-06-18T09:43:38.365Z,13872
2018-06-18T09:44:03.882Z,13388
2018-06-18T09:44:29.384Z,13440
2018-06-18T09:44:54.791Z,12544
2018-06-18T09:45:20.307Z,11784
2018-06-18T09:45:45.720Z,11412
2018-06-18T09:46:11.202Z,11064
2018-06-18T09:46:36.704Z,10448
2018-06-18T09:47:02.200Z,9912
2018-06-18T09:47:27.796Z,9544
2018-06-18T09:47:53.460Z,9556
2018-06-18T09:48:19.012Z,9220
2018-06-18T09:48:44.916Z,8504
2018-06-18T09:49:10.512Z,8152
2018-06-18T09:49:36.143Z,7676
2018-06-18T09:50:01.660Z,7176
2018-06-18T09:50:27.149Z,6840
2018-06-18T09:50:52.603Z,6428
2018-06-18T09:51:18.129Z,5980
2018-06-18T09:51:43.546Z,5516
2018-06-18T09:52:09.066Z,5324
2018-06-18T09:52:34.525Z,5396
2018-06-18T09:52:59.958Z,5524
2018-06-18T09:53:25.492Z,5628
2018-06-18T09:53:50.941Z,5796
2018-06-18T09:54:16.393Z,5480
2018-06-18T09:54:41.834Z,5024
2018-06-18T09:55:07.313Z,4880
2018-06-18T09:55:32.799Z,4948
2018-06-18T09:55:58.291Z,5168
2018-06-18T09:56:23.782Z,5712
2018-06-18T09:56:49.223Z,6024
2018-06-18T09:57:14.687Z,5756
2018-06-18T09:57:40.155Z,5344
2018-06-18T09:58:05.653Z,5052